createdAt,value
2018-02-16T00:00:15.724Z,0
2018-02-16T00:01:15.180Z,0
2018-02-16T00:02:15.686Z,0
2018-02-16T00:03:15.660Z,0
2018-02-16T00:04:15.648Z,0
2018-02-16T00:05:15.083Z,0
2018-02-16T00:06:15.622Z,0
2018-02-16T00:07:15.560Z,0
2018-02-16T00:08:15.019Z,0
2018-02-16T00:09:15.257Z,0
2018-02-16T00:10:15.233Z,0
2018-02-16T00:11:14.952Z,0
2018-02-16T00:12:15.199Z,0
2018-02-16T00:13:15.437Z,0
2018-02-16T00:14:15.149Z,0
2018-02-16T00:15:15.120Z,0
2018-02-16T00:16:15.404Z,0
2018-02-16T00:17:15.096Z,0
2018-02-16T00:18:14.790Z,0
2018-02-16T00:19:15.036Z,0
2018-02-16T00:20:15.282Z,0
2018-02-16T00:21:14.459Z,0
2018-02-16T00:22:14.708Z,0
2018-02-16T00:23:14.938Z,0
2018-02-16T00:24:14.390Z,0
2018-02-16T00:25:15.159Z,0
2018-02-16T00:26:15.403Z,0
2018-02-16T00:27:15.119Z,0
2018-02-16T00:28:14.825Z,0
2018-02-16T00:29:14.810Z,0
2018-02-16T00:30:14.519Z,0
2018-02-16T00:31:14.754Z,0
2018-02-16T00:32:15.011Z,0
2018-02-16T00:33:14.979Z,0
2018-02-16T00:34:14.954Z,0
2018-02-16T00:35:14.944Z,0
2018-02-16T00:36:14.376Z,0
2018-02-16T00:37:14.352Z,0
2018-02-16T00:38:14.603Z,0
2018-02-16T00:39:14.313Z,0
2018-02-16T00:40:14.294Z,0
2018-02-16T00:41:14.528Z,0
2018-02-16T00:42:14.517Z,0
2018-02-16T00:43:14.741Z,0
2018-02-16T00:44:14.201Z,0
2018-02-16T00:45:14.176Z,0
2018-02-16T00:46:14.415Z,0
2018-02-16T00:47:14.127Z,0
2018-02-16T00:48:14.632Z,0
2018-02-16T00:49:14.344Z,0
2018-02-16T00:50:13.796Z,0
2018-02-16T00:51:14.574Z,0
2018-02-16T00:52:14.281Z,0
2018-02-16T00:53:14.257Z,0
2018-02-16T00:54:13.696Z,0
2018-02-16T00:55:13.940Z,0
2018-02-16T00:56:14.459Z,0
2018-02-16T00:57:13.901Z,0
2018-02-16T00:58:14.664Z,0
2018-02-16T00:59:14.014Z,0
2018-02-16T01:00:14.620Z,0
2018-02-16T01:01:14.347Z,0
2018-02-16T01:02:14.310Z,0
2018-02-16T01:03:14.026Z,0
2018-02-16T01:04:13.999Z,0
2018-02-16T01:05:13.979Z,0
2018-02-16T01:06:14.210Z,0
2018-02-16T01:07:13.660Z,0
2018-02-16T01:08:14.173Z,0
2018-02-16T01:09:14.141Z,0
2018-02-16T01:10:13.598Z,0
2018-02-16T01:11:13.791Z,0
2018-02-16T01:12:13.811Z,0
2018-02-16T01:13:13.790Z,0
2018-02-16T01:14:13.772Z,0
2018-02-16T01:15:13.755Z,0
2018-02-16T01:16:13.457Z,0
2018-02-16T01:17:13.701Z,0
2018-02-16T01:18:14.213Z,0
2018-02-16T01:19:13.649Z,0
2018-02-16T01:21:13.346Z,0
2018-02-16T01:22:13.319Z,0
2018-02-16T01:23:13.821Z,0
2018-02-16T01:24:13.539Z,0
2018-02-16T01:25:14.052Z,0
2018-02-16T01:26:13.489Z,0
2018-02-16T01:27:13.727Z,0
2018-02-16T01:28:13.448Z,0
2018-02-16T01:29:13.687Z,0
2018-02-16T01:30:12.875Z,0
2018-02-16T01:31:13.908Z,0
2018-02-16T01:32:13.879Z,0
2018-02-16T01:33:13.589Z,0
2018-02-16T01:34:13.312Z,0
2018-02-16T01:35:13.553Z,0
2018-02-16T01:36:13.256Z,0
2018-02-16T01:37:13.495Z,0
2018-02-16T01:38:13.476Z,0
2018-02-16T01:39:13.457Z,0
2018-02-16T01:40:13.424Z,0
2018-02-16T01:41:13.146Z,0
2018-02-16T01:42:13.114Z,0
2018-02-16T01:43:13.354Z,0
2018-02-16T01:44:13.339Z,0
2018-02-16T01:45:13.309Z,0
2018-02-16T01:46:13.548Z,0
2018-02-16T01:47:13.269Z,0
2018-02-16T01:48:12.976Z,0
2018-02-16T01:49:12.955Z,0
2018-02-16T01:50:12.926Z,0
2018-02-16T01:51:12.915Z,0
2018-02-16T01:52:12.907Z,0
2018-02-16T01:53:12.862Z,0
2018-02-16T01:54:12.577Z,0
2018-02-16T01:55:13.091Z,0
2018-02-16T01:56:12.262Z,0
2018-02-16T01:57:12.505Z,0
2018-02-16T01:58:12.480Z,0
2018-02-16T01:59:12.456Z,0
2018-02-16T02:00:12.702Z,0
2018-02-16T02:01:13.236Z,0
2018-02-16T02:02:12.650Z,0
2018-02-16T02:03:12.664Z,0
2018-02-16T02:04:12.604Z,0
2018-02-16T02:05:12.579Z,0
2018-02-16T02:06:12.556Z,0
2018-02-16T02:07:12.530Z,0
2018-02-16T02:08:12.507Z,0
2018-02-16T02:09:12.483Z,0
2018-02-16T02:10:12.197Z,0
2018-02-16T02:11:12.177Z,0
2018-02-16T02:12:12.419Z,0
2018-02-16T02:13:12.393Z,0
2018-02-16T02:14:12.633Z,0
2018-02-16T02:15:12.620Z,0
2018-02-16T02:16:12.331Z,0
2018-02-16T02:17:12.294Z,0
2018-02-16T02:18:12.282Z,0
2018-02-16T02:19:12.258Z,0
2018-02-16T02:20:12.810Z,0
2018-02-16T02:21:12.467Z,0
2018-02-16T02:22:12.443Z,0
2018-02-16T02:23:12.424Z,0
2018-02-16T02:24:11.876Z,0
2018-02-16T02:25:11.851Z,0
2018-02-16T02:26:12.361Z,0
2018-02-16T02:27:12.331Z,0
2018-02-16T02:28:12.579Z,0
2018-02-16T02:29:12.288Z,0
2018-02-16T02:30:12.001Z,0
2018-02-16T02:31:12.255Z,0
2018-02-16T02:32:11.428Z,0
2018-02-16T02:33:11.938Z,0
2018-02-16T02:34:11.905Z,0
2018-02-16T02:35:12.148Z,0
2018-02-16T02:36:11.594Z,0
2018-02-16T02:37:12.103Z,0
2018-02-16T02:38:11.815Z,0
2018-02-16T02:39:12.314Z,0
2018-02-16T02:40:12.047Z,0
2018-02-16T02:41:11.742Z,0
2018-02-16T02:42:12.243Z,0
2018-02-16T02:43:11.970Z,0
2018-02-16T02:44:11.950Z,0
2018-02-16T02:45:11.666Z,0
2018-02-16T02:46:12.163Z,0
2018-02-16T02:47:11.340Z,0
2018-02-16T02:48:11.328Z,0
2018-02-16T02:49:11.558Z,0
2018-02-16T02:50:11.546Z,0
2018-02-16T02:51:11.784Z,0
2018-02-16T02:52:11.490Z,0
2018-02-16T02:53:11.474Z,0
2018-02-16T02:54:11.976Z,0
2018-02-16T02:55:11.430Z,0
2018-02-16T02:56:11.676Z,0
2018-02-16T02:57:11.961Z,0
2018-02-16T02:58:11.882Z,0
2018-02-16T02:59:11.860Z,0
2018-02-16T03:00:10.786Z,0
2018-02-16T03:01:11.294Z,0
2018-02-16T03:02:11.529Z,0
2018-02-16T03:03:11.764Z,0
2018-02-16T03:04:11.223Z,0
2018-02-16T03:05:11.197Z,0
2018-02-16T03:06:11.164Z,0
2018-02-16T03:07:11.141Z,0
2018-02-16T03:08:11.387Z,0
2018-02-16T03:09:11.100Z,0
2018-02-16T03:10:11.600Z,0
2018-02-16T03:11:11.047Z,0
2018-02-16T03:12:11.558Z,0
2018-02-16T03:13:11.269Z,0
2018-02-16T03:14:10.981Z,0
2018-02-16T03:15:10.701Z,0
2018-02-16T03:16:11.469Z,0
2018-02-16T03:17:11.171Z,0
2018-02-16T03:18:10.886Z,0
2018-02-16T03:19:10.864Z,0
2018-02-16T03:20:10.841Z,0
2018-02-16T03:21:10.756Z,0
2018-02-16T03:22:10.796Z,0
2018-02-16T03:23:10.774Z,0
2018-02-16T03:24:10.747Z,0
2018-02-16T03:25:10.480Z,0
2018-02-16T03:26:10.709Z,0
2018-02-16T03:27:10.951Z,0
2018-02-16T03:28:10.663Z,0
2018-02-16T03:29:10.636Z,0
2018-02-16T03:30:10.359Z,0
2018-02-16T03:31:10.327Z,0
2018-02-16T03:32:10.561Z,0
2018-02-16T03:33:10.276Z,0
2018-02-16T03:34:10.788Z,0
2018-02-16T03:35:10.758Z,0
2018-02-16T03:36:10.741Z,0
2018-02-16T03:37:10.181Z,0
2018-02-16T03:38:10.167Z,0
2018-02-16T03:39:10.671Z,0
2018-02-16T03:40:10.390Z,0
2018-02-16T03:41:10.629Z,0
2018-02-16T03:42:10.330Z,0
2018-02-16T03:43:10.323Z,0
2018-02-16T03:44:10.034Z,0
2018-02-16T03:45:10.524Z,0
2018-02-16T03:46:10.247Z,0
2018-02-16T03:47:09.690Z,0
2018-02-16T03:48:09.947Z,0
2018-02-16T03:49:10.172Z,0
2018-02-16T03:50:10.158Z,0
2018-02-16T03:51:09.901Z,0
2018-02-16T03:52:09.836Z,0
2018-02-16T03:53:10.347Z,0
2018-02-16T03:54:10.324Z,0
2018-02-16T03:55:10.300Z,0
2018-02-16T03:56:10.276Z,0
2018-02-16T03:57:09.730Z,0
2018-02-16T03:58:09.696Z,0
2018-02-16T03:59:09.943Z,0
2018-02-16T04:00:10.185Z,0
2018-02-16T04:01:10.155Z,0
2018-02-16T04:02:10.135Z,0
2018-02-16T04:03:10.105Z,0
2018-02-16T04:04:10.087Z,0
2018-02-16T04:05:10.067Z,0
2018-02-16T04:06:09.785Z,0
2018-02-16T04:07:10.028Z,0
2018-02-16T04:08:10.006Z,0
2018-02-16T04:09:10.240Z,0
2018-02-16T04:10:10.213Z,0
2018-02-16T04:11:09.922Z,0
2018-02-16T04:12:09.371Z,0
2018-02-16T04:13:09.610Z,0
2018-02-16T04:14:09.851Z,0
2018-02-16T04:15:09.834Z,0
2018-02-16T04:16:10.068Z,0
2018-02-16T04:17:10.050Z,0
2018-02-16T04:18:09.770Z,0
2018-02-16T04:19:09.738Z,0
2018-02-16T04:20:09.716Z,0
2018-02-16T04:21:08.904Z,0
2018-02-16T04:22:09.406Z,0
2018-02-16T04:23:09.908Z,0
2018-02-16T04:24:09.622Z,0
2018-02-16T04:25:09.334Z,0
2018-02-16T04:26:09.579Z,0
2018-02-16T04:27:09.812Z,0
2018-02-16T04:28:09.534Z,0
2018-02-16T04:29:09.513Z,0
2018-02-16T04:30:09.750Z,0
2018-02-16T04:31:09.195Z,0
2018-02-16T04:32:09.434Z,0
2018-02-16T04:33:09.418Z,0
2018-02-16T04:34:09.135Z,0
2018-02-16T04:35:09.370Z,0
2018-02-16T04:36:09.353Z,0
2018-02-16T04:37:09.055Z,0
2018-02-16T04:38:08.770Z,0
2018-02-16T04:39:09.282Z,0
2018-02-16T04:40:09.506Z,0
2018-02-16T04:41:08.955Z,0
2018-02-16T04:42:08.940Z,0
2018-02-16T04:43:08.914Z,0
2018-02-16T04:44:08.889Z,0
2018-02-16T04:45:09.131Z,0
2018-02-16T04:46:08.584Z,0
2018-02-16T04:47:08.554Z,0
2018-02-16T04:48:09.067Z,0
2018-02-16T04:49:09.028Z,0
2018-02-16T04:50:09.017Z,0
2018-02-16T04:51:08.462Z,0
2018-02-16T04:52:08.703Z,0
2018-02-16T04:53:08.953Z,0
2018-02-16T04:54:08.927Z,0
2018-02-16T04:55:08.908Z,0
2018-02-16T04:56:09.147Z,0
2018-02-16T04:57:08.323Z,0
2018-02-16T04:58:08.568Z,0
2018-02-16T04:59:08.277Z,0
2018-02-16T05:00:08.785Z,0
2018-02-16T05:01:08.753Z,0
2018-02-16T05:02:08.734Z,0
2018-02-16T05:03:08.457Z,0
2018-02-16T05:04:08.439Z,0
2018-02-16T05:05:08.672Z,0
2018-02-16T05:06:08.639Z,0
2018-02-16T05:07:08.099Z,0
2018-02-16T05:08:08.866Z,0
2018-02-16T05:09:08.829Z,0
2018-02-16T05:10:08.286Z,0
2018-02-16T05:11:08.257Z,0
2018-02-16T05:12:08.237Z,0
2018-02-16T05:13:08.217Z,0
2018-02-16T05:14:08.196Z,0
2018-02-16T05:15:08.703Z,0
2018-02-16T05:16:08.139Z,0
2018-02-16T05:17:08.123Z,0
2018-02-16T05:18:08.097Z,0
2018-02-16T05:19:08.610Z,0
2018-02-16T05:20:08.041Z,0
2018-02-16T05:21:08.226Z,0
2018-02-16T05:22:08.535Z,0
2018-02-16T05:23:08.239Z,0
2018-02-16T05:24:08.221Z,0
2018-02-16T05:25:07.661Z,0
2018-02-16T05:26:07.639Z,0
2018-02-16T05:27:08.515Z,0
2018-02-16T05:28:07.860Z,0
2018-02-16T05:29:08.113Z,0
2018-02-16T05:30:07.543Z,0
2018-02-16T05:31:07.787Z,0
2018-02-16T05:32:07.760Z,0
2018-02-16T05:33:07.472Z,0
2018-02-16T05:34:07.727Z,0
2018-02-16T05:35:07.962Z,0
2018-02-16T05:36:08.026Z,0
2018-02-16T05:37:07.907Z,0
2018-02-16T05:38:07.888Z,0
2018-02-16T05:39:07.593Z,0
2018-02-16T05:40:08.146Z,0
2018-02-16T05:41:08.074Z,0
2018-02-16T05:42:07.525Z,0
2018-02-16T05:43:07.242Z,0
2018-02-16T05:44:07.738Z,0
2018-02-16T05:45:07.457Z,0
2018-02-16T05:46:07.429Z,0
2018-02-16T05:47:07.410Z,0
2018-02-16T05:48:07.122Z,0
2018-02-16T05:49:07.356Z,0
2018-02-16T05:50:07.337Z,0
2018-02-16T05:51:07.046Z,0
2018-02-16T05:52:07.554Z,0
2018-02-16T05:53:07.793Z,0
2018-02-16T05:54:07.508Z,0
2018-02-16T05:55:07.236Z,0
2018-02-16T05:56:07.210Z,0
2018-02-16T05:57:06.907Z,0
2018-02-16T05:58:07.423Z,0
2018-02-16T05:59:07.392Z,0
2018-02-16T06:00:07.365Z,0
2018-02-16T06:01:07.339Z,0
2018-02-16T06:02:07.052Z,0
2018-02-16T06:03:06.501Z,0
2018-02-16T06:04:06.801Z,0
2018-02-16T06:05:07.254Z,0
2018-02-16T06:06:06.975Z,0
2018-02-16T06:07:07.462Z,0
2018-02-16T06:08:06.939Z,0
2018-02-16T06:09:06.881Z,0
2018-02-16T06:10:06.337Z,0
2018-02-16T06:11:07.370Z,0
2018-02-16T06:12:07.077Z,0
2018-02-16T06:13:06.803Z,0
2018-02-16T06:14:07.297Z,0
2018-02-16T06:15:06.747Z,0
2018-02-16T06:16:07.086Z,0
2018-02-16T06:17:06.703Z,0
2018-02-16T06:18:07.211Z,0
2018-02-16T06:19:06.919Z,0
2018-02-16T06:20:06.897Z,0
2018-02-16T06:21:07.135Z,0
2018-02-16T06:22:06.840Z,0
2018-02-16T06:23:07.089Z,0
2018-02-16T06:24:06.535Z,0
2018-02-16T06:25:07.041Z,0
2018-02-16T06:26:07.021Z,0
2018-02-16T06:27:06.734Z,0
2018-02-16T06:28:06.216Z,0
2018-02-16T06:29:06.427Z,0
2018-02-16T06:30:06.397Z,0
2018-02-16T06:31:05.861Z,0
2018-02-16T06:32:06.350Z,0
2018-02-16T06:33:06.327Z,0
2018-02-16T06:34:06.566Z,0
2018-02-16T06:35:06.282Z,0
2018-02-16T06:36:05.992Z,0
2018-02-16T06:37:06.494Z,0
2018-02-16T06:38:06.729Z,0
2018-02-16T06:39:06.187Z,0
2018-02-16T06:40:06.151Z,0
2018-02-16T06:41:06.662Z,5
2018-02-16T06:42:06.382Z,5
2018-02-16T06:43:06.616Z,5
2018-02-16T06:44:06.170Z,5
2018-02-16T06:45:06.047Z,5
2018-02-16T06:46:06.283Z,5
2018-02-16T06:47:05.994Z,5
2018-02-16T06:48:06.245Z,5
2018-02-16T06:49:06.221Z,5
2018-02-16T06:50:05.928Z,10
2018-02-16T06:51:06.426Z,10
2018-02-16T06:52:06.145Z,10
2018-02-16T06:53:05.847Z,10
2018-02-16T06:54:05.824Z,10
2018-02-16T06:55:06.326Z,10
2018-02-16T06:56:05.791Z,10
2018-02-16T06:57:05.771Z,15
2018-02-16T06:58:05.754Z,15
2018-02-16T06:59:05.177Z,15
2018-02-16T07:00:06.003Z,15
2018-02-16T07:01:05.666Z,15
2018-02-16T07:02:05.638Z,15
2018-02-16T07:03:05.625Z,20
2018-02-16T07:04:05.863Z,20
2018-02-16T07:05:05.575Z,20
2018-02-16T07:06:05.817Z,20
2018-02-16T07:07:05.535Z,20
2018-02-16T07:08:05.493Z,25
2018-02-16T07:09:05.473Z,25
2018-02-16T07:10:05.976Z,25
2018-02-16T07:11:05.708Z,25
2018-02-16T07:12:05.471Z,25
2018-02-16T07:13:05.108Z,25
2018-02-16T07:14:05.363Z,30
2018-02-16T07:15:05.330Z,30
2018-02-16T07:16:05.312Z,30
2018-02-16T07:17:05.832Z,30
2018-02-16T07:18:05.522Z,35
2018-02-16T07:19:04.710Z,35
2018-02-16T07:20:05.210Z,35
2018-02-16T07:21:05.126Z,35
2018-02-16T07:22:05.429Z,40
2018-02-16T07:23:05.146Z,40
2018-02-16T07:24:05.387Z,40
2018-02-16T07:25:05.092Z,40
2018-02-16T07:26:04.801Z,40
2018-02-16T07:27:05.570Z,40
2018-02-16T07:28:04.767Z,45
2018-02-16T07:29:05.274Z,45
2018-02-16T07:30:04.974Z,45
2018-02-16T07:31:05.557Z,45
2018-02-16T07:32:05.463Z,50
2018-02-16T07:33:05.172Z,60
2018-02-16T07:34:05.164Z,75
2018-02-16T07:35:04.598Z,75
2018-02-16T07:36:05.102Z,65
2018-02-16T07:37:05.084Z,65
2018-02-16T07:38:04.812Z,60
2018-02-16T07:39:04.779Z,60
2018-02-16T07:40:04.739Z,75
2018-02-16T07:41:04.762Z,80
2018-02-16T07:42:04.695Z,75
2018-02-16T07:43:04.676Z,65
2018-02-16T07:44:04.383Z,60
2018-02-16T07:45:04.626Z,55
2018-02-16T07:46:04.601Z,50
2018-02-16T07:47:04.843Z,50
2018-02-16T07:48:04.298Z,50
2018-02-16T07:49:04.535Z,55
2018-02-16T07:50:05.040Z,60
2018-02-16T07:51:04.491Z,60
2018-02-16T07:52:04.460Z,60
2018-02-16T07:53:04.705Z,60
2018-02-16T07:54:04.429Z,65
2018-02-16T07:55:04.658Z,70
2018-02-16T07:56:04.646Z,95
2018-02-16T07:57:04.628Z,115
2018-02-16T07:58:04.598Z,110
2018-02-16T07:59:04.309Z,100
2018-02-16T08:00:04.552Z,105
2018-02-16T08:01:04.800Z,105
2018-02-16T08:02:04.498Z,100
2018-02-16T08:03:03.959Z,90
2018-02-16T08:04:04.724Z,95
2018-02-16T08:05:03.911Z,85
2018-02-16T08:06:04.155Z,75
2018-02-16T08:07:04.124Z,70
2018-02-16T08:08:04.646Z,65
2018-02-16T08:09:04.361Z,65
2018-02-16T08:10:03.797Z,65
2018-02-16T08:11:04.307Z,75
2018-02-16T08:12:03.782Z,80
2018-02-16T08:13:03.988Z,100
2018-02-16T08:14:04.232Z,115
2018-02-16T08:15:04.248Z,115
2018-02-16T08:16:04.183Z,105
2018-02-16T08:17:03.934Z,95
2018-02-16T08:18:03.882Z,85
2018-02-16T08:19:04.398Z,80
2018-02-16T08:20:03.570Z,80
2018-02-16T08:21:03.550Z,80
2018-02-16T08:22:03.791Z,90
2018-02-16T08:23:03.509Z,100
2018-02-16T08:24:03.485Z,105
2018-02-16T08:25:03.984Z,110
2018-02-16T08:26:03.709Z,105
2018-02-16T08:27:03.152Z,110
2018-02-16T08:28:03.654Z,120
2018-02-16T08:29:03.635Z,125
2018-02-16T08:30:03.611Z,135
2018-02-16T08:31:03.858Z,120
2018-02-16T08:32:03.828Z,120
2018-02-16T08:33:03.541Z,120
2018-02-16T08:34:03.520Z,125
2018-02-16T08:35:04.027Z,125
2018-02-16T08:36:03.475Z,130
2018-02-16T08:37:02.926Z,150
2018-02-16T08:38:03.436Z,165
2018-02-16T08:39:03.672Z,150
2018-02-16T08:40:03.661Z,160
2018-02-16T08:41:03.892Z,200
2018-02-16T08:42:03.084Z,245
2018-02-16T08:43:03.337Z,265
2018-02-16T08:44:03.304Z,250
2018-02-16T08:45:03.814Z,210
2018-02-16T08:46:02.992Z,180
2018-02-16T08:47:03.496Z,210
2018-02-16T08:48:03.737Z,265
2018-02-16T08:49:03.467Z,315
2018-02-16T08:50:03.428Z,315
2018-02-16T08:51:02.626Z,310
2018-02-16T08:52:03.129Z,260
2018-02-16T08:53:03.383Z,220
2018-02-16T08:54:03.350Z,200
2018-02-16T08:55:03.069Z,275
2018-02-16T08:56:02.784Z,335
2018-02-16T08:57:03.574Z,340
2018-02-16T08:58:02.746Z,330
2018-02-16T08:59:03.263Z,330
2018-02-16T09:00:02.452Z,310
2018-02-16T09:01:02.692Z,305
2018-02-16T09:02:03.200Z,280
2018-02-16T09:03:02.386Z,260
2018-02-16T09:04:03.206Z,270
2018-02-16T09:05:02.618Z,260
2018-02-16T09:06:03.129Z,260
2018-02-16T09:07:02.842Z,260
2018-02-16T09:08:02.297Z,265
2018-02-16T09:09:02.820Z,265
2018-02-16T09:10:02.525Z,250
2018-02-16T09:11:02.773Z,265
2018-02-16T09:12:03.020Z,270
2018-02-16T09:13:03.004Z,210
2018-02-16T09:14:03.258Z,185
2018-02-16T09:15:02.711Z,190
2018-02-16T09:16:02.682Z,270
2018-02-16T09:17:02.663Z,260
2018-02-16T09:18:02.912Z,225
2018-02-16T09:19:02.633Z,270
2018-02-16T09:20:03.155Z,395
2018-02-16T09:21:03.324Z,480
2018-02-16T09:22:02.364Z,505
2018-02-16T09:23:03.088Z,465
2018-02-16T09:24:02.544Z,370
2018-02-16T09:25:02.786Z,370
2018-02-16T09:26:02.525Z,325
2018-02-16T09:27:02.227Z,310
2018-02-16T09:28:02.477Z,390
2018-02-16T09:29:01.927Z,420
2018-02-16T09:30:02.482Z,435
2018-02-16T09:31:02.685Z,415
2018-02-16T09:32:02.674Z,330
2018-02-16T09:33:02.652Z,255
2018-02-16T09:34:02.629Z,245
2018-02-16T09:35:02.611Z,245
2018-02-16T09:36:02.330Z,285
2018-02-16T09:37:02.050Z,295
2018-02-16T09:38:01.778Z,280
2018-02-16T09:39:02.552Z,270
2018-02-16T09:40:02.005Z,325
2018-02-16T09:41:01.983Z,300
2018-02-16T09:42:02.234Z,245
2018-02-16T09:43:02.218Z,265
2018-02-16T09:44:02.463Z,315
2018-02-16T09:45:02.474Z,325
2018-02-16T09:46:02.469Z,285
2018-02-16T09:47:02.419Z,285
2018-02-16T09:48:02.139Z,265
2018-02-16T09:49:02.173Z,210
2018-02-16T09:50:02.690Z,305
2018-02-16T09:51:02.338Z,470
2018-02-16T09:52:01.799Z,385
2018-02-16T09:53:02.048Z,315
2018-02-16T09:54:02.292Z,425
2018-02-16T09:55:02.274Z,415
2018-02-16T09:56:01.990Z,320
2018-02-16T09:57:01.972Z,235
2018-02-16T09:58:02.222Z,185
2018-02-16T09:59:02.205Z,395
2018-02-16T10:00:01.940Z,365
2018-02-16T10:01:02.188Z,325
2018-02-16T10:02:02.158Z,295
2018-02-16T10:03:02.132Z,265
2018-02-16T10:04:02.118Z,285
2018-02-16T10:05:01.839Z,290
2018-02-16T10:06:01.825Z,310
2018-02-16T10:07:01.806Z,350
2018-02-16T10:08:02.061Z,430
2018-02-16T10:09:01.770Z,375
2018-02-16T10:10:01.490Z,450
2018-02-16T10:11:02.007Z,530
2018-02-16T10:12:02.248Z,405
2018-02-16T10:13:01.750Z,300
2018-02-16T10:14:01.420Z,490
2018-02-16T10:15:01.941Z,535
2018-02-16T10:16:01.918Z,500
2018-02-16T10:17:01.376Z,415
2018-02-16T10:18:01.363Z,495
2018-02-16T10:19:01.611Z,570
2018-02-16T10:20:01.596Z,240
2018-02-16T10:21:01.575Z,575
2018-02-16T10:22:01.826Z,735
2018-02-16T10:23:01.810Z,380
2018-02-16T10:24:01.792Z,825
2018-02-16T10:25:01.511Z,600
2018-02-16T10:26:01.498Z,325
2018-02-16T10:27:01.211Z,165
2018-02-16T10:28:02.003Z,125
2018-02-16T10:29:01.457Z,105
2018-02-16T10:30:01.714Z,125
2018-02-16T10:31:01.427Z,145
2018-02-16T10:32:01.402Z,135
2018-02-16T10:33:01.384Z,180
2018-02-16T10:34:01.901Z,205
2018-02-16T10:35:01.629Z,200
2018-02-16T10:36:01.334Z,205
2018-02-16T10:37:01.331Z,190
2018-02-16T10:38:01.042Z,195
2018-02-16T10:39:01.815Z,200
2018-02-16T10:40:00.745Z,235
2018-02-16T10:41:01.262Z,200
2018-02-16T10:42:01.242Z,200
2018-02-16T10:43:01.482Z,205
2018-02-16T10:44:01.483Z,250
2018-02-16T10:45:00.922Z,225
2018-02-16T10:46:01.431Z,275
2018-02-16T10:47:01.151Z,225
2018-02-16T10:48:01.136Z,215
2018-02-16T10:49:01.382Z,235
2018-02-16T10:50:01.431Z,275
2018-02-16T10:51:01.348Z,230
2018-02-16T10:52:01.341Z,210
2018-02-16T10:53:00.785Z,215
2018-02-16T10:54:01.298Z,215
2018-02-16T10:55:01.339Z,220
2018-02-16T10:56:01.004Z,220
2018-02-16T10:57:00.719Z,235
2018-02-16T10:58:01.266Z,240
2018-02-16T10:59:01.206Z,280
2018-02-16T11:00:01.199Z,295
2018-02-16T11:01:01.176Z,255
2018-02-16T11:02:01.424Z,230
2018-02-16T11:03:00.867Z,220
2018-02-16T11:04:00.867Z,215
2018-02-16T11:05:00.579Z,255
2018-02-16T11:06:01.342Z,355
2018-02-16T11:07:00.804Z,225
2018-02-16T11:08:00.779Z,210
2018-02-16T11:09:00.505Z,225
2018-02-16T11:10:00.482Z,215
2018-02-16T11:11:01.040Z,220
2018-02-16T11:12:01.244Z,225
2018-02-16T11:13:00.439Z,180
2018-02-16T11:14:00.420Z,150
2018-02-16T11:15:01.186Z,205
2018-02-16T11:16:00.648Z,210
2018-02-16T11:17:00.624Z,210
2018-02-16T11:18:00.344Z,205
2018-02-16T11:19:00.593Z,185
2018-02-16T11:20:00.318Z,230
2018-02-16T11:21:01.164Z,215
2018-02-16T11:22:00.790Z,250
2018-02-16T11:23:00.781Z,245
2018-02-16T11:24:01.078Z,220
2018-02-16T11:25:00.739Z,280
2018-02-16T11:26:00.723Z,320
2018-02-16T11:27:00.445Z,295
2018-02-16T11:28:00.690Z,285
2018-02-16T11:29:01.030Z,635
2018-02-16T11:29:59.864Z,275
2018-02-16T11:31:00.101Z,530
2018-02-16T11:32:00.359Z,685
2018-02-16T11:33:00.077Z,505
2018-02-16T11:34:00.050Z,220
2018-02-16T11:35:00.567Z,675
2018-02-16T11:35:59.760Z,155
2018-02-16T11:37:00.528Z,195
2018-02-16T11:37:59.984Z,720
2018-02-16T11:38:59.964Z,210
2018-02-16T11:40:00.494Z,150
2018-02-16T11:40:59.673Z,150
2018-02-16T11:41:59.916Z,220
2018-02-16T11:43:00.175Z,245
2018-02-16T11:43:59.882Z,155
2018-02-16T11:45:00.665Z,125
2018-02-16T11:46:00.379Z,135
2018-02-16T11:47:00.105Z,195
2018-02-16T11:47:59.555Z,300
2018-02-16T11:49:00.067Z,190
2018-02-16T11:50:00.054Z,150
2018-02-16T11:51:00.571Z,125
2018-02-16T11:52:00.277Z,105
2018-02-16T11:53:00.529Z,105
2018-02-16T11:54:00.242Z,120
2018-02-16T11:54:59.707Z,160
2018-02-16T11:55:59.944Z,185
2018-02-16T11:56:59.942Z,125
2018-02-16T11:57:59.658Z,130
2018-02-16T11:58:59.896Z,220
2018-02-16T11:59:59.881Z,820
2018-02-16T12:00:59.867Z,335
2018-02-16T12:02:00.109Z,610
2018-02-16T12:02:59.832Z,585
2018-02-16T12:03:59.279Z,465
2018-02-16T12:05:00.069Z,580
2018-02-16T12:06:00.041Z,275
2018-02-16T12:07:00.031Z,305
2018-02-16T12:08:00.013Z,675
2018-02-16T12:08:59.986Z,945
2018-02-16T12:09:59.718Z,785
2018-02-16T12:10:59.438Z,230
2018-02-16T12:11:59.687Z,795
2018-02-16T12:12:59.687Z,840
2018-02-16T12:13:59.918Z,210
2018-02-16T12:14:59.908Z,170
2018-02-16T12:15:59.630Z,935
2018-02-16T12:16:59.608Z,250
2018-02-16T12:17:59.594Z,970
2018-02-16T12:18:59.858Z,1055
2018-02-16T12:19:59.576Z,1020
2018-02-16T12:20:59.852Z,1025
2018-02-16T12:21:59.542Z,1055
2018-02-16T12:22:59.796Z,1045
2018-02-16T12:23:59.521Z,970
2018-02-16T12:24:59.240Z,950
2018-02-16T12:25:59.504Z,945
2018-02-16T12:26:59.746Z,990
2018-02-16T12:27:59.471Z,1015
2018-02-16T12:28:59.462Z,1040
2018-02-16T12:29:59.715Z,985
2018-02-16T12:30:59.186Z,720
2018-02-16T12:31:59.965Z,970
2018-02-16T12:32:59.149Z,910
2018-02-16T12:33:59.676Z,700
2018-02-16T12:34:58.875Z,460
2018-02-16T12:35:59.417Z,200
2018-02-16T12:36:59.394Z,265
2018-02-16T12:37:59.120Z,520
2018-02-16T12:38:59.650Z,210
2018-02-16T12:39:59.359Z,740
2018-02-16T12:40:59.883Z,180
2018-02-16T12:41:59.342Z,165
2018-02-16T12:42:59.878Z,190
2018-02-16T12:43:59.328Z,165
2018-02-16T12:44:59.054Z,990
2018-02-16T12:45:59.322Z,420
2018-02-16T12:46:59.306Z,155
2018-02-16T12:47:59.571Z,160
2018-02-16T12:48:59.281Z,190
2018-02-16T12:49:59.800Z,380
2018-02-16T12:50:59.256Z,155
2018-02-16T12:51:59.245Z,255
2018-02-16T12:52:58.978Z,165
2018-02-16T12:53:59.493Z,925
2018-02-16T12:54:59.481Z,170
2018-02-16T12:55:59.462Z,180
2018-02-16T12:56:58.941Z,950
2018-02-16T12:57:58.914Z,720
2018-02-16T12:58:59.426Z,640
2018-02-16T12:59:59.158Z,935
2018-02-16T13:00:59.672Z,145
2018-02-16T13:01:58.861Z,150
2018-02-16T13:02:59.388Z,950
2018-02-16T13:03:59.639Z,975
2018-02-16T13:04:59.358Z,950
2018-02-16T13:05:59.381Z,915
2018-02-16T13:06:59.071Z,905
2018-02-16T13:07:59.053Z,905
2018-02-16T13:08:59.312Z,895
2018-02-16T13:09:59.301Z,805
2018-02-16T13:10:59.023Z,905
2018-02-16T13:11:59.280Z,915
2018-02-16T13:12:59.008Z,915
2018-02-16T13:13:59.001Z,930
2018-02-16T13:14:59.528Z,945
2018-02-16T13:15:58.987Z,965
2018-02-16T13:16:58.986Z,960
2018-02-16T13:17:59.031Z,950
2018-02-16T13:18:59.242Z,900
2018-02-16T13:19:59.206Z,885
2018-02-16T13:20:59.219Z,890
2018-02-16T13:21:59.173Z,905
2018-02-16T13:22:59.460Z,885
2018-02-16T13:23:58.919Z,870
2018-02-16T13:24:59.176Z,865
2018-02-16T13:25:58.698Z,885
2018-02-16T13:26:59.178Z,880
2018-02-16T13:27:58.885Z,920
2018-02-16T13:28:58.895Z,875
2018-02-16T13:29:59.407Z,860
2018-02-16T13:30:58.605Z,860
2018-02-16T13:31:59.238Z,870
2018-02-16T13:32:59.122Z,875
2018-02-16T13:33:59.109Z,855
2018-02-16T13:34:59.379Z,835
2018-02-16T13:35:59.355Z,825
2018-02-16T13:36:58.832Z,830
2018-02-16T13:37:59.361Z,830
2018-02-16T13:38:58.824Z,610
2018-02-16T13:39:59.082Z,810
2018-02-16T13:40:59.073Z,830
2018-02-16T13:41:58.804Z,850
2018-02-16T13:42:59.080Z,835
2018-02-16T13:43:59.185Z,805
2018-02-16T13:44:58.300Z,795
2018-02-16T13:45:58.796Z,785
2018-02-16T13:46:59.049Z,765
2018-02-16T13:47:59.035Z,765
2018-02-16T13:48:59.032Z,765
2018-02-16T13:49:59.087Z,755
2018-02-16T13:50:58.512Z,745
2018-02-16T13:51:58.686Z,735
2018-02-16T13:52:58.815Z,710
2018-02-16T13:53:59.002Z,705
2018-02-16T13:54:58.747Z,725
2018-02-16T13:55:59.019Z,740
2018-02-16T13:56:58.680Z,745
2018-02-16T13:57:58.489Z,740
2018-02-16T13:58:58.727Z,730
2018-02-16T13:59:58.738Z,725
2018-02-16T14:00:59.298Z,715
2018-02-16T14:01:59.246Z,705
2018-02-16T14:02:58.979Z,690
2018-02-16T14:03:59.150Z,665
2018-02-16T14:04:58.700Z,650
2018-02-16T14:05:58.458Z,640
2018-02-16T14:06:58.447Z,630
2018-02-16T14:07:58.403Z,615
2018-02-16T14:08:58.671Z,610
2018-02-16T14:09:58.388Z,615
2018-02-16T14:10:58.651Z,605
2018-02-16T14:11:58.124Z,580
2018-02-16T14:12:58.375Z,565
2018-02-16T14:13:58.637Z,575
2018-02-16T14:14:58.413Z,580
2018-02-16T14:15:58.911Z,570
2018-02-16T14:16:58.367Z,550